Time;durP1;ratioP1;P1;durP2;ratioP2;P2;SDS_P1;SDS_P2;PMS_P1;PMS_P2;Temp;Humidity;BMP_temperature;BMP_pressure;BME280_temperature;BME280_humidity;BME280_pressure;Samples;Min_cycle;Max_cycle;Signal;HPM_P1;HPM_P2
2023/06/07 00:00:11;;;;;;;10.80;5.00;;;17.10;79.20;;;;;;4843568;29;20053;-96
2023/06/07 00:02:41;;;;;;;11.82;6.30;;;17.10;79.40;;;;;;4861123;29;20070;-96
2023/06/07 00:05:12;;;;;;;11.52;5.50;;;17.10;79.60;;;;;;4859866;29;20055;-96
2023/06/07 00:07:42;;;;;;;9.90;5.07;;;17.10;79.90;;;;;;4862103;29;20061;-95
2023/06/07 00:10:14;;;;;;;9.97;5.20;;;17.10;80.10;;;;;;4858036;29;20053;-95
2023/06/07 00:17:24;;;;;;;10.52;5.13;;;17.10;80.20;;;;;;4861772;29;20078;-96
2023/06/07 00:20:52;;;;;;;8.80;4.30;;;17.10;80.30;;;;;;4847866;29;20109;-96
2023/06/07 00:23:58;;;;;;;11.73;5.13;;;17.20;80.00;;;;;;4835571;29;20061;-96
2023/06/07 00:26:47;;;;;;;9.20;4.90;;;17.30;80.10;;;;;;4826984;29;20051;-96
2023/06/07 00:29:22;;;;;;;11.68;5.68;;;17.30;80.20;;;;;;4825647;29;20046;-95
2023/06/07 00:32:09;;;;;;;8.65;4.80;;;17.30;80.30;;;;;;4826277;29;20037;-96
2023/06/07 00:34:43;;;;;;;10.07;4.88;;;17.30;80.40;;;;;;4838971;29;20047;-96
2023/06/07 00:37:24;;;;;;;10.82;4.53;;;17.40;80.40;;;;;;4840331;29;20053;-96
2023/06/07 00:40:21;;;;;;;9.17;4.80;;;17.40;80.40;;;;;;4826317;29;20039;-96
2023/06/07 00:42:57;;;;;;;10.02;4.70;;;17.50;80.20;;;;;;4811499;29;20050;-96
2023/06/07 00:45:57;;;;;;;8.38;4.18;;;17.40;80.40;;;;;;4826067;29;20050;-96
2023/06/07 00:53:10;;;;;;;8.85;4.35;;;17.50;80.40;;;;;;4837933;29;20079;-95
2023/06/07 00:55:38;;;;;;;8.80;4.30;;;17.50;80.30;;;;;;4807897;29;20057;-95
2023/06/07 00:58:06;;;;;;;7.38;4.05;;;17.50;80.00;;;;;;4830169;29;20052;-95
2023/06/07 01:00:40;;;;;;;8.50;4.35;;;17.50;79.60;;;;;;4851792;29;20045;-95
2023/06/07 01:03:23;;;;;;;8.00;3.58;;;17.50;79.70;;;;;;4871348;29;20060;-96
2023/06/07 01:06:13;;;;;;;8.30;3.63;;;17.50;79.50;;;;;;4880182;29;20079;-95
2023/06/07 01:08:51;;;;;;;8.40;3.63;;;17.50;79.40;;;;;;4868508;29;20052;-95
2023/06/07 01:11:20;;;;;;;9.55;4.13;;;17.50;79.70;;;;;;4854022;29;20056;-95
2023/06/07 01:13:51;;;;;;;8.20;4.30;;;17.50;79.90;;;;;;4868053;29;20509;-96
2023/06/07 01:16:18;;;;;;;10.75;4.38;;;17.50;79.90;;;;;;4858799;29;20140;-96
2023/06/07 01:18:46;;;;;;;8.70;3.75;;;17.50;79.90;;;;;;4832764;29;20063;-95
2023/06/07 01:21:21;;;;;;;8.17;4.00;;;17.40;79.90;;;;;;4838149;29;20088;-95
2023/06/07 01:23:49;;;;;;;7.47;3.97;;;17.50;80.00;;;;;;4836190;29;20524;-95
2023/06/07 01:26:19;;;;;;;8.98;4.50;;;17.50;79.90;;;;;;4840364;29;20058;-95
2023/06/07 01:28:47;;;;;;;7.95;3.83;;;17.50;79.90;;;;;;4840582;29;20247;-96
2023/06/07 01:31:16;;;;;;;9.50;4.28;;;17.50;79.80;;;;;;4837525;29;20066;-96
2023/06/07 01:33:43;;;;;;;7.20;3.47;;;17.50;79.70;;;;;;4865328;29;20050;-96
2023/06/07 01:36:16;;;;;;;7.07;3.60;;;17.50;79.40;;;;;;4858569;29;20053;-96
2023/06/07 01:38:51;;;;;;;8.35;3.58;;;17.50;79.10;;;;;;4863945;29;20082;-95
2023/06/07 01:41:19;;;;;;;8.18;3.83;;;17.50;78.90;;;;;;4860129;29;20049;-95
2023/06/07 01:43:48;;;;;;;7.82;3.75;;;17.60;78.90;;;;;;4852222;29;20069;-94
2023/06/07 01:46:17;;;;;;;7.63;3.60;;;17.60;79.00;;;;;;4855664;29;20416;-95
2023/06/07 01:48:45;;;;;;;8.55;4.03;;;17.60;78.90;;;;;;4854855;29;20058;-95
2023/06/07 01:51:16;;;;;;;8.15;4.22;;;17.60;79.00;;;;;;4869852;29;20110;-95
2023/06/07 01:53:46;;;;;;;8.80;4.10;;;17.60;79.10;;;;;;4869059;29;20148;-96
2023/06/07 01:56:51;;;;;;;8.80;4.45;;;17.60;79.30;;;;;;4854053;29;20049;-95
2023/06/07 01:59:40;;;;;;;8.90;4.13;;;17.60;79.30;;;;;;4884781;29;20136;-95
2023/06/07 02:02:29;;;;;;;7.40;3.65;;;17.60;79.40;;;;;;4879249;29;20049;-94
2023/06/07 02:05:04;;;;;;;10.07;3.95;;;17.60;79.60;;;;;;4870099;29;20057;-96
2023/06/07 02:07:43;;;;;;;8.00;3.78;;;17.60;79.60;;;;;;4853441;29;20054;-96
2023/06/07 02:10:14;;;;;;;8.15;4.20;;;17.50;79.50;;;;;;4870802;29;20060;-95
2023/06/07 02:12:43;;;;;;;8.80;4.00;;;17.50;79.40;;;;;;4855934;29;20049;-95
2023/06/07 02:15:11;;;;;;;7.88;3.80;;;17.50;79.50;;;;;;4853478;29;20053;-95
2023/06/07 02:17:57;;;;;;;9.55;4.03;;;17.50;79.60;;;;;;4857878;29;20057;-95
2023/06/07 02:20:27;;;;;;;8.95;3.97;;;17.50;79.70;;;;;;4851828;29;20477;-96
2023/06/07 02:22:58;;;;;;;8.98;3.88;;;17.50;79.70;;;;;;4860274;29;20060;-95
2023/06/07 02:25:26;;;;;;;7.97;3.87;;;17.50;79.60;;;;;;4865785;29;20097;-95
2023/06/07 02:27:58;;;;;;;9.90;4.20;;;17.50;79.50;;;;;;4859868;29;20050;-95
2023/06/07 02:30:26;;;;;;;9.23;3.92;;;17.50;79.70;;;;;;4876293;29;20124;-95
2023/06/07 02:33:13;;;;;;;9.00;3.95;;;17.50;79.60;;;;;;4855654;29;20052;-96
2023/06/07 02:35:44;;;;;;;9.75;3.97;;;17.50;79.60;;;;;;4841865;29;20474;-96
2023/06/07 02:38:12;;;;;;;8.03;4.27;;;17.50;79.70;;;;;;4867761;29;20504;-95
2023/06/07 02:40:40;;;;;;;8.38;4.28;;;17.50;79.80;;;;;;4874862;29;20049;-95
2023/06/07 02:43:08;;;;;;;8.55;4.60;;;17.50;79.80;;;;;;4864416;29;20113;-95
2023/06/07 02:45:36;;;;;;;8.85;4.53;;;17.50;79.80;;;;;;4848707;29;20053;-94
2023/06/07 02:48:06;;;;;;;9.02;4.00;;;17.50;80.00;;;;;;4843687;29;20058;-95
2023/06/07 02:50:34;;;;;;;7.80;4.20;;;17.50;80.00;;;;;;4882538;29;20049;-95
2023/06/07 02:53:02;;;;;;;7.93;3.75;;;17.40;79.90;;;;;;4849386;29;20049;-95
2023/06/07 02:55:30;;;;;;;8.40;3.85;;;17.50;79.80;;;;;;4861048;29;20056;-95
2023/06/07 02:57:59;;;;;;;9.07;4.90;;;17.50;79.70;;;;;;4874905;29;20148;-96
2023/06/07 03:00:32;;;;;;;7.70;4.07;;;17.50;79.70;;;;;;4874062;29;20580;-95
2023/06/07 03:03:14;;;;;;;7.87;4.30;;;17.50;79.80;;;;;;4857586;29;20057;-96
2023/06/07 03:05:49;;;;;;;9.80;4.10;;;17.50;80.00;;;;;;4862078;29;20049;-96
2023/06/07 03:08:20;;;;;;;9.25;4.80;;;17.50;80.20;;;;;;4875780;29;20078;-95
2023/06/07 03:10:48;;;;;;;8.70;4.13;;;17.50;79.90;;;;;;4853839;29;20057;-96
2023/06/07 03:13:24;;;;;;;9.70;4.35;;;17.50;80.00;;;;;;4860736;29;20076;-96
2023/06/07 03:15:53;;;;;;;10.63;4.30;;;17.50;80.10;;;;;;4853378;29;20110;-95
2023/06/07 03:18:23;;;;;;;8.43;4.43;;;17.50;80.00;;;;;;4850495;29;20496;-95
2023/06/07 03:20:56;;;;;;;10.05;5.10;;;17.50;79.80;;;;;;4858834;29;20054;-96
2023/06/07 03:23:24;;;;;;;10.07;5.47;;;17.50;79.50;;;;;;4865072;29;20093;-95
2023/06/07 03:25:56;;;;;;;10.55;5.57;;;17.60;79.40;;;;;;4859459;29;20110;-95
2023/06/07 03:28:31;;;;;;;11.37;5.93;;;17.60;79.50;;;;;;4864978;29;20101;-95
2023/06/07 03:30:58;;;;;;;12.18;7.13;;;17.50;79.90;;;;;;4845673;29;20057;-95
2023/06/07 03:33:35;;;;;;;12.40;6.50;;;17.50;79.80;;;;;;4851355;29;20054;-95
2023/06/07 03:36:07;;;;;;;14.52;6.43;;;17.50;80.00;;;;;;4844944;29;20113;-96
2023/06/07 03:38:38;;;;;;;12.50;5.60;;;17.40;80.30;;;;;;4860059;29;20061;-96
2023/06/07 03:41:07;;;;;;;13.70;6.50;;;17.50;80.30;;;;;;4860006;29;20074;-96
2023/06/07 03:43:39;;;;;;;10.55;6.00;;;17.50;80.20;;;;;;4887893;29;20057;-96
2023/06/07 03:46:10;;;;;;;10.32;6.32;;;17.50;80.30;;;;;;4853529;29;20141;-96
2023/06/07 04:02:39;;;;;;;14.27;7.00;;;17.80;80.00;;;;;;4898644;29;20059;-96
2023/06/07 04:15:27;;;;;;;15.67;7.53;;;17.90;79.70;;;;;;5184054;23;20078;-95
2023/06/07 04:47:49;;;;;;;13.80;7.47;;;18.00;81.00;;;;;;5794476;23;20105;-96
2023/06/07 04:50:20;;;;;;;13.35;7.22;;;18.00;81.30;;;;;;4876014;29;20415;-96
2023/06/07 04:53:00;;;;;;;11.18;6.95;;;18.00;81.30;;;;;;4856411;29;20053;-95
2023/06/07 05:07:46;;;;;;;12.93;8.38;;;18.20;80.20;;;;;;4695327;23;20929;31
2023/06/07 05:22:42;;;;;;;20.03;10.10;;;18.60;79.40;;;;;;4954330;23;20056;-96
2023/06/07 05:25:29;;;;;;;17.52;10.40;;;18.60;79.00;;;;;;4880902;29;20052;-96
2023/06/07 05:32:24;;;;;;;22.38;12.63;;;18.60;78.70;;;;;;4893736;29;20259;-92
2023/06/07 05:34:54;;;;;;;20.70;12.45;;;18.70;79.00;;;;;;4867346;29;20041;-95
2023/06/07 05:41:43;;;;;;;21.10;12.27;;;18.80;78.60;;;;;;4859856;29;20140;-96
2023/06/07 05:44:16;;;;;;;26.13;13.50;;;18.90;78.60;;;;;;4848040;29;20071;-95
2023/06/07 05:46:57;;;;;;;25.23;13.98;;;19.00;78.60;;;;;;4846953;29;20045;-96
2023/06/07 05:52:30;;;;;;;27.00;13.90;;;18.90;78.70;;;;;;5023813;23;20061;-94
2023/06/07 05:54:58;;;;;;;27.85;15.77;;;19.00;78.20;;;;;;4870936;29;20041;-95
2023/06/07 05:57:33;;;;;;;30.65;16.70;;;19.00;78.80;;;;;;4871162;29;20049;-96
2023/06/07 06:00:00;;;;;;;31.40;16.58;;;19.00;78.00;;;;;;4874519;29;20045;-95
2023/06/07 06:02:38;;;;;;;27.35;15.63;;;19.00;78.10;;;;;;4873626;29;20128;-94
2023/06/07 06:05:06;;;;;;;28.57;16.43;;;19.00;78.40;;;;;;4867005;29;20057;-94
2023/06/07 06:07:34;;;;;;;28.42;15.05;;;19.10;78.80;;;;;;4851582;29;20053;-95
2023/06/07 06:10:01;;;;;;;29.58;17.48;;;19.10;78.20;;;;;;4866834;29;20049;-94
2023/06/07 06:12:31;;;;;;;32.03;17.67;;;19.10;78.30;;;;;;4866371;29;20134;-94
2023/06/07 06:14:59;;;;;;;28.98;17.17;;;19.20;77.50;;;;;;4866888;29;20064;-95
2023/06/07 06:17:27;;;;;;;29.23;17.67;;;19.20;77.60;;;;;;4867727;29;20085;-94
2023/06/07 06:19:54;;;;;;;28.85;18.35;;;19.30;77.50;;;;;;4852401;29;20467;-95
2023/06/07 06:22:21;;;;;;;35.78;19.90;;;19.30;77.50;;;;;;4869328;29;20411;-95
2023/06/07 06:24:50;;;;;;;31.05;18.17;;;19.20;77.10;;;;;;4866939;29;20052;-95
2023/06/07 06:27:19;;;;;;;32.10;20.05;;;19.20;77.40;;;;;;4865594;29;20511;-95
2023/06/07 06:29:46;;;;;;;30.87;18.30;;;19.10;77.20;;;;;;4865841;29;20049;-94
2023/06/07 06:32:13;;;;;;;30.92;19.05;;;19.20;77.50;;;;;;4865640;29;20049;-95
2023/06/07 06:34:41;;;;;;;32.47;18.90;;;19.20;77.60;;;;;;4867712;29;20049;-96
2023/06/07 06:37:20;;;;;;;35.80;21.13;;;19.20;78.00;;;;;;4870748;29;20117;-96
2023/06/07 06:39:51;;;;;;;34.17;19.83;;;19.20;77.70;;;;;;4853197;29;20053;-95
2023/06/07 06:42:26;;;;;;;32.90;20.30;;;19.20;77.80;;;;;;4858940;29;20077;-96
2023/06/07 06:45:18;;;;;;;31.42;20.05;;;19.30;77.80;;;;;;4875971;29;20085;-95
2023/06/07 06:47:50;;;;;;;40.88;23.05;;;19.30;78.10;;;;;;4870456;29;20049;-95
2023/06/07 06:50:20;;;;;;;38.90;21.83;;;19.30;77.70;;;;;;4860727;29;20052;-94
2023/06/07 06:53:09;;;;;;;38.92;23.40;;;19.20;78.00;;;;;;4875872;29;20049;-95
2023/06/07 06:55:37;;;;;;;35.77;21.80;;;19.20;78.60;;;;;;4867426;29;20113;-95
2023/06/07 06:58:15;;;;;;;38.58;23.27;;;19.20;78.90;;;;;;4853002;29;20041;-96
2023/06/07 07:00:48;;;;;;;36.30;23.48;;;19.20;78.50;;;;;;4866709;29;20147;-94
2023/06/07 07:03:16;;;;;;;42.00;25.38;;;19.20;78.20;;;;;;4855764;29;20055;-95
2023/06/07 07:05:51;;;;;;;41.45;24.67;;;19.30;77.90;;;;;;4866140;29;20049;-96
2023/06/07 07:08:18;;;;;;;38.73;23.77;;;19.40;77.90;;;;;;4835051;29;20145;-96
2023/06/07 07:10:47;;;;;;;40.90;24.02;;;19.30;77.90;;;;;;4865315;29;20522;-95
2023/06/07 07:13:15;;;;;;;38.15;22.40;;;19.30;78.20;;;;;;4850166;29;20056;-96
2023/06/07 07:16:01;;;;;;;36.15;22.42;;;19.20;78.50;;;;;;4870220;29;20140;-95
2023/06/07 07:18:36;;;;;;;37.75;22.10;;;19.20;78.80;;;;;;4864627;29;20045;-96
2023/06/07 07:21:13;;;;;;;43.30;23.67;;;19.20;78.80;;;;;;4852872;29;20074;-93
2023/06/07 07:23:40;;;;;;;40.75;24.30;;;19.30;78.00;;;;;;4867924;29;20511;-95
2023/06/07 07:26:08;;;;;;;37.20;23.83;;;19.30;78.00;;;;;;4858039;29;20061;-96
2023/06/07 07:28:36;;;;;;;36.67;23.20;;;19.40;78.00;;;;;;4878475;29;20049;-94
2023/06/07 07:31:05;;;;;;;38.28;23.63;;;19.50;77.90;;;;;;4860404;29;20101;-94
2023/06/07 07:33:56;;;;;;;37.53;23.23;;;19.60;78.20;;;;;;4869286;29;20048;-96
2023/06/07 07:36:24;;;;;;;36.05;21.58;;;19.60;77.90;;;;;;4864051;29;20056;-96
2023/06/07 07:38:53;;;;;;;36.92;23.90;;;19.70;77.10;;;;;;4857969;29;20055;-96
2023/06/07 07:41:36;;;;;;;39.47;23.05;;;19.80;77.70;;;;;;4859377;29;20049;-95
2023/06/07 07:44:09;;;;;;;35.88;21.98;;;19.80;77.40;;;;;;4877062;29;20451;-96
2023/06/07 07:46:36;;;;;;;36.57;22.47;;;19.80;76.70;;;;;;4863022;29;20124;-95
2023/06/07 07:49:25;;;;;;;36.40;22.02;;;20.00;76.70;;;;;;4879998;29;20048;-96
2023/06/07 07:52:02;;;;;;;36.80;23.00;;;20.10;76.40;;;;;;4849215;29;20067;-95
2023/06/07 07:54:33;;;;;;;34.72;21.20;;;20.00;75.90;;;;;;4856453;29;20049;-95
2023/06/07 07:57:04;;;;;;;34.50;21.17;;;19.90;75.90;;;;;;4855141;29;20045;-95
2023/06/07 07:59:34;;;;;;;36.67;20.67;;;20.00;75.80;;;;;;4880633;29;20045;-95
2023/06/07 08:06:29;;;;;;;33.45;21.35;;;20.20;76.30;;;;;;4894873;29;20016;-94
2023/06/07 08:08:59;;;;;;;36.35;22.65;;;20.40;75.70;;;;;;4878759;29;20427;-95
2023/06/07 08:15:09;;;;;;;34.70;21.27;;;20.40;75.60;;;;;;5540645;23;20081;-96
2023/06/07 08:17:42;;;;;;;33.85;21.58;;;20.50;75.60;;;;;;4873304;29;20049;-96
2023/06/07 08:20:15;;;;;;;32.83;20.38;;;20.60;74.30;;;;;;4870937;29;20151;-95
2023/06/07 08:22:50;;;;;;;32.00;21.48;;;20.60;75.10;;;;;;4869782;29;20049;-95
2023/06/07 08:25:19;;;;;;;34.17;20.95;;;20.60;74.90;;;;;;4853138;29;20059;-95
2023/06/07 08:28:04;;;;;;;33.33;20.60;;;20.50;75.70;;;;;;4865377;29;20055;-96
2023/06/07 08:32:09;;;;;;;32.10;18.60;;;20.30;75.50;;;;;;4827333;29;20065;-96
2023/06/07 08:39:23;;;;;;;29.27;18.85;;;20.30;76.10;;;;;;4707151;30;20140;-96
2023/06/07 08:42:37;;;;;;;29.27;19.17;;;20.60;75.30;;;;;;4703399;30;20037;-96
2023/06/07 08:45:17;;;;;;;27.97;18.40;;;20.60;74.90;;;;;;4700817;30;20064;-96
2023/06/07 08:47:58;;;;;;;24.60;16.63;;;20.70;75.40;;;;;;4702310;30;20061;-96
2023/06/07 08:50:37;;;;;;;24.55;16.52;;;20.80;75.00;;;;;;4680056;30;20053;-95
2023/06/07 08:57:55;;;;;;;24.10;15.38;;;20.90;73.60;;;;;;4705476;30;20072;-96
2023/06/07 09:00:29;;;;;;;24.87;15.67;;;20.80;74.00;;;;;;4709835;30;20061;-96
2023/06/07 09:03:02;;;;;;;24.75;16.55;;;21.00;74.60;;;;;;4679642;30;20049;-96
2023/06/07 09:05:59;;;;;;;26.42;16.58;;;21.10;74.50;;;;;;4704252;30;20076;-96
2023/06/07 09:12:47;;;;;;;26.02;15.52;;;21.20;73.90;;;;;;4816608;29;20036;-95
2023/06/07 09:15:23;;;;;;;21.90;15.40;;;21.30;73.70;;;;;;4818587;29;20074;-94
2023/06/07 09:17:54;;;;;;;22.65;15.43;;;21.40;73.80;;;;;;4855377;29;20076;-96
2023/06/07 09:20:24;;;;;;;23.33;14.40;;;21.50;72.40;;;;;;4857921;29;20044;-96
2023/06/07 09:23:04;;;;;;;21.38;14.13;;;21.40;72.60;;;;;;4873149;29;20049;-96
2023/06/07 09:25:32;;;;;;;20.08;13.02;;;21.30;71.70;;;;;;4877514;29;20053;-96
2023/06/07 09:28:02;;;;;;;22.70;14.83;;;21.30;72.00;;;;;;4878150;29;20060;-96
2023/06/07 09:30:30;;;;;;;20.25;12.77;;;21.20;71.30;;;;;;4873285;29;20056;-96
2023/06/07 09:32:58;;;;;;;19.42;12.80;;;21.10;71.40;;;;;;4870614;29;20053;-96
2023/06/07 09:35:25;;;;;;;21.42;12.70;;;21.10;72.10;;;;;;4875931;29;20057;-96
2023/06/07 09:37:54;;;;;;;19.73;13.05;;;21.10;72.40;;;;;;4857325;29;20091;-93
2023/06/07 09:40:25;;;;;;;19.30;13.03;;;21.30;72.30;;;;;;4868701;29;20128;-95
2023/06/07 09:43:00;;;;;;;20.13;12.73;;;21.50;71.60;;;;;;4869646;29;20449;-95
2023/06/07 09:45:28;;;;;;;19.95;12.82;;;21.50;71.50;;;;;;4852393;29;20049;-96
2023/06/07 09:48:03;;;;;;;20.05;12.98;;;21.60;71.10;;;;;;4853000;29;20049;-96
2023/06/07 09:50:35;;;;;;;19.08;12.18;;;21.60;70.20;;;;;;4869222;29;20057;-96
2023/06/07 09:53:02;;;;;;;19.03;11.30;;;21.60;70.10;;;;;;4854756;29;20060;-94
2023/06/07 09:55:30;;;;;;;20.30;12.23;;;21.80;70.20;;;;;;4851105;29;20056;-95
2023/06/07 09:57:57;;;;;;;18.63;12.13;;;22.10;69.10;;;;;;4869249;29;20033;-93
2023/06/07 10:00:25;;;;;;;16.73;10.45;;;22.30;68.10;;;;;;4867015;29;20056;-94
2023/06/07 10:03:05;;;;;;;16.83;10.75;;;22.50;67.40;;;;;;4866625;29;20045;-92
2023/06/07 10:05:34;;;;;;;16.30;10.10;;;22.60;66.00;;;;;;4870512;29;20106;-94
2023/06/07 10:08:06;;;;;;;17.23;11.07;;;22.40;65.90;;;;;;4873911;29;20053;-93
2023/06/07 10:10:35;;;;;;;16.55;11.25;;;22.50;66.60;;;;;;4871597;29;20049;-96
2023/06/07 10:13:05;;;;;;;19.77;12.07;;;22.60;66.60;;;;;;4840660;29;20080;-96
2023/06/07 10:15:35;;;;;;;17.83;12.57;;;22.80;66.60;;;;;;4869870;29;20152;-96
2023/06/07 10:18:21;;;;;;;16.37;10.10;;;22.80;66.60;;;;;;4867998;29;20041;-91
2023/06/07 10:20:57;;;;;;;14.63;9.38;;;22.60;67.10;;;;;;4866113;29;20053;-93
2023/06/07 10:23:31;;;;;;;14.15;9.43;;;22.50;66.50;;;;;;4866601;29;20055;-92
2023/06/07 10:26:04;;;;;;;13.95;9.52;;;22.40;66.50;;;;;;4865782;29;20068;-93
2023/06/07 10:28:53;;;;;;;14.82;9.00;;;22.50;66.50;;;;;;4866040;29;20380;-93
2023/06/07 10:31:26;;;;;;;14.77;8.50;;;22.50;66.30;;;;;;4865611;29;20411;-91
2023/06/07 10:33:56;;;;;;;13.32;8.00;;;22.70;65.80;;;;;;4865291;29;20045;-90
2023/06/07 10:36:25;;;;;;;13.13;7.97;;;22.80;65.10;;;;;;4865619;29;20057;-92
2023/06/07 10:38:55;;;;;;;14.35;8.10;;;22.60;64.50;;;;;;4865352;29;20101;-92
2023/06/07 10:55:37;;;;;;;11.07;7.32;;;22.60;66.00;;;;;;4887266;29;20047;-96
2023/06/07 10:58:25;;;;;;;12.32;7.90;;;22.50;66.10;;;;;;4784399;29;20058;-90
2023/06/07 11:01:16;;;;;;;11.77;6.90;;;22.50;66.40;;;;;;4849032;29;20045;-96
2023/06/07 11:03:43;;;;;;;10.43;6.37;;;22.50;66.40;;;;;;4854306;29;20048;-92
2023/06/07 11:06:11;;;;;;;9.73;5.68;;;22.60;66.80;;;;;;4865104;29;20056;-91
2023/06/07 11:08:39;;;;;;;10.68;6.63;;;22.60;66.70;;;;;;4865127;29;20109;-90
2023/06/07 11:11:40;;;;;;;12.18;6.13;;;22.60;66.50;;;;;;4864774;29;20053;-91
2023/06/07 11:14:07;;;;;;;10.13;6.28;;;22.90;65.80;;;;;;4849338;29;20148;-91
2023/06/07 11:16:35;;;;;;;11.00;6.17;;;23.00;66.40;;;;;;4864674;29;20049;-91
2023/06/07 11:19:13;;;;;;;9.65;5.68;;;23.10;65.40;;;;;;4864640;29;20575;-92
2023/06/07 11:21:55;;;;;;;11.02;5.78;;;23.10;65.30;;;;;;4864599;29;20073;-92
2023/06/07 11:24:23;;;;;;;10.70;5.82;;;23.30;65.20;;;;;;4865910;29;20065;-93
2023/06/07 11:26:50;;;;;;;10.63;5.95;;;23.30;64.00;;;;;;4849752;29;20071;-93
2023/06/07 11:29:19;;;;;;;13.07;6.13;;;23.40;63.00;;;;;;4865051;29;20126;-93
2023/06/07 11:31:55;;;;;;;41.45;7.18;;;23.40;62.90;;;;;;4864531;29;20077;-93
2023/06/07 11:34:23;;;;;;;10.02;5.35;;;23.30;63.70;;;;;;4865621;29;20053;-93
2023/06/07 11:36:52;;;;;;;9.15;4.88;;;23.40;62.70;;;;;;4864412;29;20097;-95
2023/06/07 11:39:56;;;;;;;;;;;;;;;;;;;;;
2023/06/07 11:42:30;;;;;;;10.00;5.33;;;23.60;63.10;;;;;;4866196;29;20048;-95
2023/06/07 11:44:59;;;;;;;13.98;5.53;;;23.50;62.70;;;;;;4850173;29;20052;-96
2023/06/07 11:47:27;;;;;;;11.07;5.60;;;23.50;62.70;;;;;;4865037;29;20061;-93
2023/06/07 11:49:57;;;;;;;9.32;5.10;;;23.30;64.20;;;;;;4851989;29;20057;-96
2023/06/07 11:52:26;;;;;;;8.68;4.03;;;23.10;62.30;;;;;;4867911;29;20084;-95
2023/06/07 11:54:58;;;;;;;8.67;3.80;;;23.00;61.70;;;;;;4854673;29;20125;-91
2023/06/07 11:57:32;;;;;;;6.85;3.55;;;22.80;62.20;;;;;;4867063;29;20053;-96
2023/06/07 12:00:15;;;;;;;9.15;4.25;;;22.80;61.80;;;;;;4871052;29;20218;-96
2023/06/07 12:02:43;;;;;;;7.53;3.85;;;22.80;62.10;;;;;;4868882;29;20511;-95
2023/06/07 12:05:11;;;;;;;9.50;4.30;;;22.90;62.30;;;;;;4865351;29;20424;-96
2023/06/07 12:07:39;;;;;;;8.10;3.90;;;23.00;61.70;;;;;;4849500;29;20463;-96
2023/06/07 12:10:09;;;;;;;8.98;4.68;;;23.10;61.70;;;;;;4850108;29;20515;-96
2023/06/07 12:12:37;;;;;;;8.18;4.30;;;23.20;62.20;;;;;;4849809;29;20049;-96
2023/06/07 12:15:05;;;;;;;10.20;4.70;;;23.30;61.60;;;;;;4849999;29;20049;-95
2023/06/07 12:17:38;;;;;;;9.48;4.90;;;23.30;60.20;;;;;;4864531;29;20041;-94
2023/06/07 12:20:14;;;;;;;8.90;4.50;;;23.30;60.40;;;;;;4865888;29;20060;-96
2023/06/07 12:22:41;;;;;;;8.57;4.63;;;23.40;61.80;;;;;;4865540;29;20053;-96
2023/06/07 12:25:19;;;;;;;9.52;4.78;;;23.50;59.90;;;;;;4849186;29;20050;-94
2023/06/07 12:27:47;;;;;;;7.47;4.35;;;23.60;59.80;;;;;;4864483;29;20057;-94
2023/06/07 12:30:19;;;;;;;8.73;4.40;;;23.70;60.50;;;;;;4864256;29;20053;-94
2023/06/07 12:32:47;;;;;;;9.07;4.17;;;23.80;59.00;;;;;;4864248;29;20069;-94
2023/06/07 12:35:15;;;;;;;8.88;4.28;;;23.80;58.40;;;;;;4849254;29;20061;-94
2023/06/07 12:37:44;;;;;;;8.15;4.13;;;23.80;58.20;;;;;;4864127;29;20053;-94
2023/06/07 12:40:12;;;;;;;7.90;4.10;;;23.80;58.20;;;;;;4848999;29;20074;-94
2023/06/07 12:42:40;;;;;;;8.80;4.03;;;23.90;58.70;;;;;;4868500;29;20468;-94
2023/06/07 12:45:08;;;;;;;8.60;4.30;;;23.90;59.60;;;;;;4873273;29;20460;-94
2023/06/07 12:47:36;;;;;;;7.72;4.35;;;23.90;59.90;;;;;;4870005;29;20508;-96
2023/06/07 12:50:05;;;;;;;7.63;4.28;;;23.90;60.10;;;;;;4854761;29;20460;-94
2023/06/07 12:52:32;;;;;;;9.40;4.15;;;23.90;59.30;;;;;;4877398;29;20112;-95
2023/06/07 12:55:03;;;;;;;7.65;3.85;;;23.90;58.90;;;;;;4866020;29;20051;-95
2023/06/07 12:57:32;;;;;;;6.50;3.40;;;23.90;58.40;;;;;;4878942;29;20053;-96
2023/06/07 13:00:02;;;;;;;8.85;4.07;;;23.80;58.90;;;;;;4863318;29;20116;-95
2023/06/07 13:02:34;;;;;;;9.60;3.88;;;23.80;60.30;;;;;;4878020;29;20052;-94
2023/06/07 13:05:02;;;;;;;18.10;4.38;;;23.90;59.00;;;;;;4857244;29;20053;-95
2023/06/07 13:07:32;;;;;;;8.10;4.18;;;24.00;58.70;;;;;;4877310;29;20105;-96
2023/06/07 13:10:14;;;;;;;8.33;4.20;;;24.00;59.10;;;;;;4879830;29;20065;-95
2023/06/07 13:12:45;;;;;;;7.30;3.70;;;24.10;59.40;;;;;;4862645;29;20053;-96
2023/06/07 13:19:44;;;;;;;6.82;3.30;;;24.10;58.50;;;;;;4896758;29;20461;-91
2023/06/07 13:22:15;;;;;;;7.10;3.67;;;24.10;58.50;;;;;;4874859;29;20045;-95
2023/06/07 13:24:42;;;;;;;7.63;3.67;;;24.10;59.20;;;;;;4852179;29;20504;-91
2023/06/07 13:27:09;;;;;;;7.80;3.38;;;24.00;58.60;;;;;;4866637;29;20053;-90
2023/06/07 13:29:36;;;;;;;7.05;3.40;;;24.00;58.90;;;;;;4866810;29;20056;-90
2023/06/07 13:32:04;;;;;;;8.40;3.45;;;24.00;58.80;;;;;;4866388;29;20056;-91
2023/06/07 13:34:31;;;;;;;8.73;3.75;;;24.10;60.10;;;;;;4851219;29;20476;-90
2023/06/07 13:37:00;;;;;;;7.73;3.43;;;24.10;59.10;;;;;;4866179;29;20044;-91
2023/06/07 13:39:30;;;;;;;10.10;4.03;;;24.10;60.00;;;;;;4851386;29;20132;-91
2023/06/07 13:41:57;;;;;;;11.60;3.80;;;24.10;58.70;;;;;;4866923;29;20447;-91
2023/06/07 13:44:25;;;;;;;9.30;3.60;;;24.10;60.30;;;;;;4867543;29;20499;-91
2023/06/07 13:46:52;;;;;;;9.95;3.53;;;24.00;60.10;;;;;;4868484;29;20491;-91
2023/06/07 13:49:20;;;;;;;9.83;3.90;;;24.00;59.60;;;;;;4850930;29;20510;-91
2023/06/07 13:51:47;;;;;;;9.30;4.18;;;24.00;60.70;;;;;;4866135;29;20049;-90
2023/06/07 13:54:14;;;;;;;172.65;157.73;;;24.00;61.60;;;;;;4867437;29;20057;-91
2023/06/07 13:56:42;;;;;;;30.45;27.20;;;24.00;61.30;;;;;;4864942;29;20053;-91
2023/06/07 13:59:09;;;;;;;10.43;5.82;;;24.00;61.40;;;;;;4851680;29;20518;-92
2023/06/07 14:01:37;;;;;;;7.23;3.70;;;23.90;61.40;;;;;;4866280;29;20049;-91
2023/06/07 14:04:04;;;;;;;6.18;3.22;;;23.90;61.50;;;;;;4851225;29;20059;-91
2023/06/07 14:06:33;;;;;;;5.60;2.05;;;23.60;60.00;;;;;;4866716;29;20060;-91
2023/06/07 14:09:00;;;;;;;6.45;2.00;;;23.10;58.90;;;;;;4851472;29;20049;-91
2023/06/07 14:11:29;;;;;;;6.75;2.30;;;22.60;59.80;;;;;;4868195;29;20049;-92
2023/06/07 14:13:57;;;;;;;4.70;1.80;;;22.40;60.20;;;;;;4866568;29;20084;-91
2023/06/07 14:16:24;;;;;;;5.53;2.08;;;22.20;59.70;;;;;;4866248;29;20572;-92
2023/06/07 14:18:54;;;;;;;5.35;1.70;;;22.10;60.90;;;;;;4865888;29;20052;-92
2023/06/07 14:21:21;;;;;;;5.45;2.00;;;22.00;61.10;;;;;;4853976;29;20079;-92
2023/06/07 14:23:48;;;;;;;5.60;1.80;;;21.90;61.60;;;;;;4869846;29;20087;-92
2023/06/07 14:26:16;;;;;;;4.43;1.60;;;21.80;61.40;;;;;;4854634;29;20115;-91
2023/06/07 14:28:43;;;;;;;4.30;1.98;;;21.70;61.90;;;;;;4871004;29;20048;-91
2023/06/07 14:31:11;;;;;;;6.95;1.60;;;21.80;61.50;;;;;;4871771;29;20064;-91
2023/06/07 14:33:39;;;;;;;5.07;1.90;;;21.80;61.70;;;;;;4858331;29;20056;-91
2023/06/07 14:36:06;;;;;;;5.78;2.10;;;21.90;62.00;;;;;;4857268;29;20060;-91
2023/06/07 14:38:35;;;;;;;7.77;2.40;;;21.90;62.90;;;;;;4873335;29;20044;-91
2023/06/07 14:41:03;;;;;;;6.30;2.03;;;22.00;63.20;;;;;;4873591;29;20045;-91
2023/06/07 14:43:30;;;;;;;20.75;3.08;;;22.00;63.80;;;;;;4858775;29;20143;-91
2023/06/07 14:45:57;;;;;;;6.05;1.92;;;22.10;63.70;;;;;;4860269;29;20124;-91
2023/06/07 14:48:25;;;;;;;6.88;1.77;;;22.20;63.50;;;;;;4874741;29;20045;-91
2023/06/07 14:50:53;;;;;;;9.37;2.40;;;22.20;63.90;;;;;;4859321;29;20057;-91
2023/06/07 14:53:20;;;;;;;6.68;2.10;;;22.20;63.60;;;;;;4860450;29;20087;-92
2023/06/07 14:55:48;;;;;;;9.20;2.10;;;22.10;63.90;;;;;;4859942;29;20108;-91
2023/06/07 14:58:15;;;;;;;8.38;1.90;;;22.00;64.00;;;;;;4875264;29;20484;-91
2023/06/07 15:00:43;;;;;;;7.20;2.20;;;21.90;64.90;;;;;;4859918;29;20049;-91
2023/06/07 15:03:10;;;;;;;11.20;2.37;;;21.90;64.40;;;;;;4859524;29;20052;-91
2023/06/07 15:05:38;;;;;;;10.52;2.50;;;21.90;64.50;;;;;;4859065;29;20148;-92
2023/06/07 15:08:05;;;;;;;7.82;2.75;;;21.90;66.90;;;;;;4873750;29;20061;-91
2023/06/07 15:10:33;;;;;;;11.05;2.40;;;21.80;67.70;;;;;;4860805;29;20053;-91
2023/06/07 15:13:00;;;;;;;7.30;2.65;;;21.80;67.80;;;;;;4860609;29;20060;-91
2023/06/07 15:15:31;;;;;;;7.73;2.17;;;21.80;67.70;;;;;;4875448;29;20053;-91
2023/06/07 15:17:59;;;;;;;7.22;2.00;;;21.80;67.70;;;;;;4876325;29;20041;-90
2023/06/07 15:20:26;;;;;;;6.45;2.30;;;21.90;67.40;;;;;;4876206;29;20147;-91
2023/06/07 15:22:55;;;;;;;12.57;2.40;;;21.90;67.30;;;;;;4859593;29;20120;-91
2023/06/07 15:25:22;;;;;;;8.32;2.60;;;21.90;67.50;;;;;;4874530;29;20076;-91